createdAt,value
2023-04-06T00:00:10.460Z,1.50
2023-04-06T00:02:38.823Z,0.90
2023-04-06T00:05:07.502Z,1.23
2023-04-06T00:07:36.479Z,1.50
2023-04-06T00:10:05.147Z,1.20
2023-04-06T00:12:34.879Z,0.87
2023-04-06T00:15:03.997Z,1.30
2023-04-06T00:17:32.335Z,1.43
2023-04-06T00:20:00.922Z,1.13
2023-04-06T00:22:29.211Z,1.30
2023-04-06T00:24:57.500Z,1.10
2023-04-06T00:27:25.934Z,0.80
2023-04-06T00:29:55.604Z,1.33
2023-04-06T00:32:24.030Z,1.77
2023-04-06T00:34:52.466Z,1.30
2023-04-06T00:37:21.110Z,1.80
2023-04-06T00:39:49.398Z,1.20
2023-04-06T00:42:18.577Z,1.00
2023-04-06T00:44:46.851Z,1.00
2023-04-06T00:47:16.496Z,1.43
2023-04-06T00:49:44.778Z,0.90
2023-04-06T00:52:13.058Z,0.87
2023-04-06T00:54:41.330Z,0.97
2023-04-06T00:57:09.604Z,1.53
2023-04-06T00:59:37.971Z,1.20
2023-04-06T01:02:06.341Z,1.20
2023-04-06T01:04:36.060Z,1.27
2023-04-06T01:07:04.398Z,1.50
2023-04-06T01:09:32.681Z,1.10
2023-04-06T01:12:01.896Z,1.40
2023-04-06T01:14:30.234Z,0.93
2023-04-06T01:17:00.351Z,0.70
2023-04-06T01:19:28.688Z,1.10
2023-04-06T01:21:58.334Z,1.20
2023-04-06T01:24:28.122Z,1.30
2023-04-06T01:26:57.515Z,0.93
2023-04-06T01:29:25.833Z,0.70
2023-04-06T01:31:54.185Z,0.97
2023-04-06T01:34:22.553Z,1.00
2023-04-06T01:36:51.256Z,0.90
2023-04-06T01:39:19.543Z,0.93
2023-04-06T01:41:49.220Z,1.40
2023-04-06T01:44:18.773Z,1.10
2023-04-06T01:46:47.182Z,1.37
2023-04-06T01:49:15.528Z,0.73
2023-04-06T01:51:43.797Z,0.93
2023-04-06T01:54:12.102Z,1.17
2023-04-06T01:56:40.969Z,1.20
2023-04-06T01:59:10.809Z,0.90
2023-04-06T02:01:39.341Z,0.80
2023-04-06T02:04:07.651Z,1.30
2023-04-06T02:06:35.959Z,1.10
2023-04-06T02:09:04.258Z,0.80
2023-04-06T02:11:32.582Z,0.83
2023-04-06T02:14:01.932Z,1.23
2023-04-06T02:16:31.718Z,0.70
2023-04-06T02:19:00.123Z,1.10
2023-04-06T02:21:28.494Z,0.80
2023-04-06T02:23:56.876Z,0.90
2023-04-06T02:26:25.458Z,1.20
2023-04-06T02:28:53.749Z,0.53
2023-04-06T02:31:22.110Z,0.80
2023-04-06T02:33:51.869Z,0.87
2023-04-06T02:36:20.159Z,0.63
2023-04-06T02:38:48.447Z,1.10
2023-04-06T02:41:16.737Z,0.90
2023-04-06T02:43:45.016Z,1.30
2023-04-06T02:46:13.316Z,0.70
2023-04-06T02:48:41.876Z,0.87
2023-04-06T02:51:11.529Z,0.90
2023-04-06T02:53:39.832Z,1.00
2023-04-06T02:56:08.620Z,0.97
2023-04-06T02:58:36.903Z,1.00
2023-04-06T03:01:05.262Z,1.10
2023-04-06T03:03:33.667Z,1.17
2023-04-06T03:06:02.032Z,0.93
2023-04-06T03:08:31.663Z,1.33
2023-04-06T03:10:59.972Z,1.23
2023-04-06T03:13:28.244Z,0.80
2023-04-06T03:15:56.557Z,1.20
2023-04-06T03:18:25.285Z,1.00
2023-04-06T03:20:54.856Z,1.10
2023-04-06T03:23:23.457Z,0.83
2023-04-06T03:25:53.083Z,1.27
2023-04-06T03:28:21.406Z,1.20
2023-04-06T03:30:49.690Z,1.17
2023-04-06T03:33:18.017Z,1.17
2023-04-06T03:35:46.454Z,1.13
2023-04-06T03:38:14.763Z,0.67
2023-04-06T03:40:43.630Z,1.20
2023-04-06T03:43:13.328Z,1.17
2023-04-06T03:45:41.650Z,1.30
2023-04-06T03:48:09.950Z,0.90
2023-04-06T03:50:38.273Z,0.83
2023-04-06T03:53:06.598Z,1.10
2023-04-06T03:55:34.939Z,0.80
2023-04-06T03:58:03.357Z,1.13
2023-04-06T04:00:33.980Z,0.97
2023-04-06T04:03:03.216Z,1.07
2023-04-06T04:05:31.616Z,0.90
2023-04-06T04:07:59.948Z,1.23
2023-04-06T04:10:28.228Z,0.90
2023-04-06T04:12:56.566Z,1.27
2023-04-06T04:15:24.927Z,1.10
2023-04-06T04:17:54.609Z,0.80
2023-04-06T04:20:22.994Z,1.17
2023-04-06T04:22:51.271Z,0.77
2023-04-06T04:25:19.599Z,1.00
2023-04-06T04:27:47.880Z,1.00
2023-04-06T04:30:16.284Z,0.90
2023-04-06T04:32:44.785Z,0.90
2023-04-06T04:35:14.843Z,0.90
2023-04-06T04:37:43.448Z,0.77
2023-04-06T04:40:12.321Z,0.90
2023-04-06T04:42:40.662Z,1.07
2023-04-06T04:45:09.250Z,0.80
2023-04-06T04:47:37.618Z,1.17
2023-04-06T04:50:06.208Z,0.80
2023-04-06T04:52:35.887Z,1.43
2023-04-06T04:55:04.190Z,1.40
2023-04-06T04:57:32.756Z,0.90
2023-04-06T05:00:01.054Z,1.07
2023-04-06T05:02:29.375Z,1.30
2023-04-06T05:04:57.735Z,1.17
2023-04-06T05:07:26.104Z,0.90
2023-04-06T05:09:55.752Z,1.20
2023-04-06T05:12:24.072Z,0.73
2023-04-06T05:14:52.352Z,0.73
2023-04-06T05:17:20.747Z,1.17
2023-04-06T05:19:49.093Z,1.23
2023-04-06T05:22:18.598Z,1.10
2023-04-06T05:24:47.006Z,1.43
2023-04-06T05:27:16.802Z,1.10
2023-04-06T05:29:45.267Z,1.10
2023-04-06T05:32:13.664Z,1.40
2023-04-06T05:34:41.976Z,1.37
2023-04-06T05:37:10.269Z,1.10
2023-04-06T05:39:38.536Z,1.30
2023-04-06T05:42:07.545Z,1.03
2023-04-06T05:44:37.244Z,1.03
2023-04-06T05:47:05.610Z,1.40
2023-04-06T05:49:33.924Z,1.20
2023-04-06T05:52:02.270Z,1.23
2023-04-06T05:54:30.708Z,1.00
2023-04-06T05:56:58.998Z,1.40
2023-04-06T05:59:27.441Z,1.10
2023-04-06T06:01:57.204Z,1.27
2023-04-06T06:04:25.531Z,1.20
2023-04-06T06:06:53.787Z,1.00
2023-04-06T06:09:22.079Z,1.07
2023-04-06T06:11:50.942Z,1.33
2023-04-06T06:14:19.251Z,1.30
2023-04-06T06:16:47.839Z,1.63
2023-04-06T06:19:17.555Z,1.17
2023-04-06T06:21:45.879Z,1.00
2023-04-06T06:24:14.367Z,1.03
2023-04-06T06:26:42.685Z,1.07
2023-04-06T06:29:10.998Z,0.83
2023-04-06T06:31:39.338Z,1.37
2023-04-06T06:34:07.696Z,1.10
2023-04-06T06:36:37.688Z,1.13
2023-04-06T06:39:06.616Z,1.27
2023-04-06T06:41:35.134Z,0.97
2023-04-06T06:44:03.454Z,1.13
2023-04-06T06:46:31.755Z,1.00
2023-04-06T06:49:00.179Z,1.37
2023-04-06T06:51:28.457Z,1.20
2023-04-06T06:53:58.089Z,1.70
2023-04-06T06:56:27.763Z,1.20
2023-04-06T06:58:56.104Z,1.57
2023-04-06T07:01:24.428Z,1.27
2023-04-06T07:03:52.842Z,1.13
2023-04-06T07:06:21.210Z,1.27
2023-04-06T07:08:49.491Z,1.40
2023-04-06T07:11:19.196Z,1.13
2023-04-06T07:13:47.506Z,1.53
2023-04-06T07:16:15.964Z,1.00
2023-04-06T07:18:44.295Z,0.77
2023-04-06T07:21:12.665Z,1.30
2023-04-06T07:23:41.032Z,1.07
2023-04-06T07:26:09.368Z,1.40
2023-04-06T07:28:39.216Z,1.07
2023-04-06T07:31:07.547Z,1.53
2023-04-06T07:33:35.833Z,1.43
2023-04-06T07:36:04.170Z,1.60
2023-04-06T07:38:32.544Z,1.17
2023-04-06T07:41:01.334Z,1.50
2023-04-06T07:43:29.947Z,1.17
2023-04-06T07:46:00.929Z,0.97
2023-04-06T07:48:29.254Z,1.30
2023-04-06T07:51:03.462Z,1.17
2023-04-06T07:53:31.968Z,1.17
2023-04-06T07:56:00.798Z,1.00
2023-04-06T07:58:29.116Z,1.20
2023-04-06T08:00:58.788Z,1.33
2023-04-06T08:03:28.653Z,1.30
2023-04-06T08:05:57.295Z,0.83
2023-04-06T08:08:25.587Z,1.03
2023-04-06T08:10:53.910Z,1.30
2023-04-06T08:13:22.272Z,1.27
2023-04-06T08:15:50.637Z,1.07
2023-04-06T08:18:18.996Z,1.23
2023-04-06T08:20:49.841Z,0.87
2023-04-06T08:23:18.172Z,1.00
2023-04-06T08:25:46.559Z,1.03
2023-04-06T08:28:14.881Z,0.60
2023-04-06T08:30:43.490Z,1.23
2023-04-06T08:33:12.504Z,1.00
2023-04-06T08:35:41.064Z,0.70
2023-04-06T08:38:10.734Z,0.60
2023-04-06T08:40:39.468Z,0.77
2023-04-06T08:43:09.722Z,0.80
2023-04-06T08:45:38.107Z,0.80
2023-04-06T08:48:07.635Z,0.80
2023-04-06T08:50:36.325Z,0.97
2023-04-06T08:53:04.598Z,0.93
2023-04-06T08:55:34.250Z,0.70
2023-04-06T08:58:02.550Z,0.70
2023-04-06T09:00:30.982Z,1.37
2023-04-06T09:02:59.368Z,0.90
2023-04-06T09:05:28.261Z,0.70
2023-04-06T09:07:57.128Z,1.10
2023-04-06T09:10:26.751Z,0.60
2023-04-06T09:13:04.887Z,0.80
2023-04-06T09:15:33.180Z,0.70
2023-04-06T09:18:01.508Z,0.60
2023-04-06T09:20:30.455Z,0.70
2023-04-06T09:22:58.820Z,0.80
2023-04-06T09:25:28.007Z,0.63
2023-04-06T09:28:03.644Z,0.57
2023-04-06T09:30:31.935Z,0.70
2023-04-06T09:33:00.970Z,0.70
2023-04-06T09:35:31.402Z,0.80
2023-04-06T09:38:00.112Z,0.73
2023-04-06T09:40:30.066Z,0.77
2023-04-06T09:43:00.337Z,0.70
2023-04-06T09:45:30.115Z,0.70
2023-04-06T09:47:59.373Z,0.73
2023-04-06T09:50:27.882Z,1.07
2023-04-06T09:52:57.106Z,0.40
2023-04-06T09:55:26.735Z,0.77
2023-04-06T09:57:56.155Z,0.50
2023-04-06T10:00:24.670Z,1.03
2023-04-06T10:02:57.598Z,0.60
2023-04-06T10:05:28.402Z,0.77
2023-04-06T10:08:00.818Z,0.50
2023-04-06T10:10:30.095Z,0.73
2023-04-06T10:12:58.455Z,0.50
2023-04-06T10:15:26.846Z,0.60
2023-04-06T10:17:56.552Z,0.70
2023-04-06T10:20:26.209Z,1.07
2023-04-06T10:22:57.805Z,0.70
2023-04-06T10:25:30.568Z,0.50
2023-04-06T10:28:02.633Z,0.60
2023-04-06T10:30:31.226Z,0.80
2023-04-06T10:33:00.912Z,0.70
2023-04-06T10:35:38.867Z,0.73
2023-04-06T10:38:07.294Z,0.60
2023-04-06T10:40:35.612Z,0.73
2023-04-06T10:43:09.960Z,0.57
2023-04-06T10:45:38.377Z,0.47
2023-04-06T10:48:17.095Z,0.40
2023-04-06T10:50:46.292Z,0.50
2023-04-06T10:53:14.561Z,0.53
2023-04-06T10:55:43.082Z,0.50
2023-04-06T10:58:11.384Z,0.70
2023-04-06T11:00:49.175Z,0.30
2023-04-06T11:03:20.195Z,0.60
2023-04-06T11:05:48.529Z,0.50
2023-04-06T11:08:26.284Z,1.17
2023-04-06T11:10:54.578Z,0.33
2023-04-06T11:13:22.862Z,0.50
2023-04-06T11:15:51.174Z,0.60
2023-04-06T11:18:21.647Z,0.50
2023-04-06T11:20:50.977Z,0.50
2023-04-06T11:23:25.777Z,0.40
2023-04-06T11:25:54.564Z,0.20
2023-04-06T11:28:22.894Z,0.40
2023-04-06T11:30:51.387Z,0.77
2023-04-06T11:33:24.558Z,0.50
2023-04-06T11:35:52.972Z,0.50
2023-04-06T11:38:21.988Z,0.63
2023-04-06T11:40:50.313Z,0.43
2023-04-06T11:43:18.650Z,0.53
2023-04-06T11:45:47.055Z,0.40
2023-04-06T11:48:21.568Z,0.67
2023-04-06T11:50:51.404Z,0.40
2023-04-06T11:53:19.687Z,0.60
2023-04-06T11:55:48.317Z,0.37
2023-04-06T11:58:17.076Z,0.40
2023-04-06T12:00:47.876Z,0.30
2023-04-06T12:03:16.530Z,0.40
2023-04-06T12:05:44.913Z,0.37
2023-04-06T12:08:14.968Z,0.50
2023-04-06T12:10:43.298Z,0.50
2023-04-06T12:13:11.594Z,0.30
2023-04-06T12:15:39.939Z,0.40
2023-04-06T12:18:08.305Z,0.77
2023-04-06T12:20:36.638Z,0.50
2023-04-06T12:23:04.968Z,0.60
2023-04-06T12:25:34.656Z,0.60
2023-04-06T12:28:03.037Z,0.50
2023-04-06T12:30:31.543Z,0.50
2023-04-06T12:32:59.931Z,0.70
2023-04-06T12:35:28.353Z,0.60
2023-04-06T12:37:56.935Z,0.63
2023-04-06T12:40:25.291Z,0.50
2023-04-06T12:42:54.971Z,0.50
2023-04-06T12:45:23.322Z,0.60
2023-04-06T12:47:51.898Z,0.73
2023-04-06T12:50:20.316Z,0.40
2023-04-06T12:52:48.641Z,0.40
2023-04-06T12:55:17.046Z,0.67
2023-04-06T12:57:45.544Z,0.50
2023-04-06T13:00:16.417Z,0.50
2023-04-06T13:02:47.872Z,0.40
2023-04-06T13:05:19.590Z,0.53
2023-04-06T13:07:48.486Z,0.40
2023-04-06T13:10:16.810Z,0.57
2023-04-06T13:12:45.378Z,0.50
2023-04-06T13:15:15.367Z,0.67
2023-04-06T13:17:43.718Z,0.70
2023-04-06T13:20:12.477Z,0.67
2023-04-06T13:22:41.191Z,0.50
2023-04-06T13:25:09.867Z,0.67
2023-04-06T13:27:38.197Z,0.30
2023-04-06T13:30:07.142Z,0.63
2023-04-06T13:32:37.418Z,0.60
2023-04-06T13:35:06.138Z,0.50
2023-04-06T13:37:34.717Z,0.47
2023-04-06T13:40:03.298Z,0.40
2023-04-06T13:42:31.646Z,0.47
2023-04-06T13:44:59.925Z,0.40
2023-04-06T13:47:28.529Z,0.70
2023-04-06T13:49:58.297Z,0.40
2023-04-06T13:52:26.603Z,0.50
2023-04-06T13:54:55.163Z,0.60
2023-04-06T13:57:23.457Z,0.57
2023-04-06T13:59:51.774Z,0.50
2023-04-06T14:02:20.842Z,0.40
2023-04-06T14:04:49.259Z,0.70
2023-04-06T14:07:18.867Z,0.60
2023-04-06T14:09:47.136Z,0.67
2023-04-06T14:12:15.404Z,0.40
2023-04-06T14:14:43.679Z,0.70
2023-04-06T14:17:11.916Z,0.40
2023-04-06T14:19:40.991Z,0.50
2023-04-06T14:22:09.557Z,0.30
2023-04-06T14:24:39.196Z,0.40
2023-04-06T14:27:07.523Z,0.70
2023-04-06T14:29:36.834Z,0.83
2023-04-06T14:32:05.452Z,0.30
2023-04-06T14:34:33.694Z,0.40
2023-04-06T14:37:02.107Z,0.63
2023-04-06T14:39:30.436Z,0.50
2023-04-06T14:42:00.317Z,0.43
2023-04-06T14:44:28.601Z,0.40
2023-04-06T14:46:56.832Z,0.40
2023-04-06T14:49:25.132Z,0.50
2023-04-06T14:51:54.044Z,0.50
2023-04-06T14:54:22.340Z,0.47
2023-04-06T14:56:50.828Z,0.67
2023-04-06T14:59:20.449Z,0.50
2023-04-06T15:01:48.869Z,0.53
2023-04-06T15:04:17.322Z,0.50
2023-04-06T15:06:45.821Z,0.53
2023-04-06T15:09:14.256Z,0.40
2023-04-06T15:11:42.612Z,0.50
2023-04-06T15:14:10.864Z,0.40
2023-04-06T15:16:40.493Z,0.40
2023-04-06T15:19:09.636Z,0.40
2023-04-06T15:21:37.902Z,0.40
2023-04-06T15:24:07.297Z,0.50
2023-04-06T15:26:35.561Z,0.43
2023-04-06T15:29:04.053Z,0.60
2023-04-06T15:31:38.081Z,0.40
2023-04-06T15:34:09.441Z,0.40
2023-04-06T15:36:37.792Z,0.50
2023-04-06T15:39:09.419Z,0.60
2023-04-06T15:41:37.814Z,0.47
2023-04-06T15:44:06.119Z,0.40
2023-04-06T15:46:34.449Z,0.40
2023-04-06T15:49:02.715Z,0.50
2023-04-06T15:51:33.500Z,0.40
2023-04-06T15:54:01.789Z,0.40
2023-04-06T15:56:30.032Z,0.40
2023-04-06T15:58:58.304Z,0.50
2023-04-06T16:01:26.660Z,0.43
2023-04-06T16:03:55.164Z,0.60
2023-04-06T16:06:23.402Z,0.40
2023-04-06T16:08:53.029Z,0.50
2023-04-06T16:11:21.336Z,0.40
2023-04-06T16:13:55.277Z,0.30
2023-04-06T16:16:24.003Z,0.47
2023-04-06T16:18:52.315Z,0.40
2023-04-06T16:21:20.576Z,0.60
2023-04-06T16:23:48.898Z,0.60
2023-04-06T16:26:19.133Z,0.40
2023-04-06T16:28:47.586Z,0.37
2023-04-06T16:31:19.996Z,0.40
2023-04-06T16:33:48.363Z,0.40
2023-04-06T16:36:16.670Z,0.40
2023-04-06T16:38:44.936Z,0.40
2023-04-06T16:41:15.007Z,0.50
2023-04-06T16:43:44.752Z,0.43
2023-04-06T16:46:13.301Z,0.80
2023-04-06T16:48:41.775Z,0.70
2023-04-06T16:51:10.061Z,0.30
2023-04-06T16:53:38.654Z,0.50
2023-04-06T16:56:07.032Z,0.50
2023-04-06T16:58:35.661Z,0.30
2023-04-06T17:01:05.935Z,0.50
2023-04-06T17:03:34.644Z,0.50
2023-04-06T17:06:03.048Z,0.70
2023-04-06T17:08:31.317Z,0.40
2023-04-06T17:11:04.112Z,0.30
2023-04-06T17:13:32.999Z,0.40
2023-04-06T17:16:01.328Z,0.47
2023-04-06T17:18:32.019Z,0.50
2023-04-06T17:21:00.629Z,0.70
2023-04-06T17:23:28.849Z,0.60
2023-04-06T17:25:57.838Z,0.80
2023-04-06T17:28:26.376Z,0.90
2023-04-06T17:30:54.651Z,0.80
2023-04-06T17:33:23.692Z,0.67
2023-04-06T17:35:53.438Z,0.80
2023-04-06T17:38:21.715Z,1.13
2023-04-06T17:40:49.967Z,0.97
2023-04-06T17:43:18.230Z,1.10
2023-04-06T17:45:46.684Z,1.00
2023-04-06T17:48:15.078Z,0.50
2023-04-06T17:50:43.374Z,1.23
2023-04-06T17:53:13.159Z,0.90
2023-04-06T17:55:41.461Z,1.53
2023-04-06T17:58:09.737Z,1.30
2023-04-06T18:00:38.014Z,1.30
2023-04-06T18:03:06.606Z,0.90
2023-04-06T18:05:34.966Z,1.60
2023-04-06T18:08:03.230Z,1.40
2023-04-06T18:10:32.893Z,1.23
2023-04-06T18:13:01.546Z,1.00
2023-04-06T18:15:31.314Z,1.27
2023-04-06T18:17:59.935Z,1.40
2023-04-06T18:20:28.312Z,1.13
2023-04-06T18:22:56.804Z,1.40
2023-04-06T18:25:25.502Z,1.10
2023-04-06T18:27:55.204Z,1.37
2023-04-06T18:30:23.455Z,1.27
2023-04-06T18:32:53.122Z,1.43
2023-04-06T18:35:21.363Z,1.13
2023-04-06T18:37:49.645Z,1.43
2023-04-06T18:40:34.196Z,1.40
2023-04-06T18:43:03.809Z,1.00
2023-04-06T18:45:33.655Z,1.30
2023-04-06T18:48:02.017Z,1.23
2023-04-06T18:50:30.407Z,0.87
2023-04-06T18:52:58.669Z,1.03
2023-04-06T18:55:27.484Z,1.20
2023-04-06T18:57:55.736Z,1.57
2023-04-06T19:00:25.400Z,1.57
2023-04-06T19:02:54.029Z,1.30
2023-04-06T19:05:23.178Z,1.17
2023-04-06T19:07:52.505Z,1.10
2023-04-06T19:10:21.054Z,1.47
2023-04-06T19:12:49.670Z,1.50
2023-04-06T19:15:17.920Z,1.03
2023-04-06T19:17:47.825Z,1.60
2023-04-06T19:20:16.142Z,1.17
2023-04-06T19:22:44.805Z,1.37
2023-04-06T19:25:13.078Z,1.43
2023-04-06T19:27:42.027Z,1.23
2023-04-06T19:30:10.792Z,1.23
2023-04-06T19:32:39.779Z,1.43
2023-04-06T19:35:09.534Z,1.50
2023-04-06T19:37:38.116Z,1.33
2023-04-06T19:40:07.688Z,1.53
2023-04-06T19:42:36.831Z,1.60
2023-04-06T19:45:05.255Z,1.07
2023-04-06T19:47:34.899Z,1.17
2023-04-06T19:50:03.190Z,1.33
2023-04-06T19:52:33.632Z,0.70
2023-04-06T19:55:01.972Z,1.27
2023-04-06T19:57:30.335Z,1.00
2023-04-06T19:59:58.620Z,0.90
2023-04-06T20:02:27.208Z,1.50
2023-04-06T20:04:55.529Z,1.00
2023-04-06T20:07:23.815Z,1.10
2023-04-06T20:09:53.432Z,1.40
2023-04-06T20:12:21.673Z,0.97
2023-04-06T20:14:51.023Z,1.33
2023-04-06T20:17:19.330Z,0.80
2023-04-06T20:19:47.537Z,1.00
2023-04-06T20:22:15.881Z,1.10
2023-04-06T20:24:44.097Z,1.20
2023-04-06T20:27:13.721Z,1.63
2023-04-06T20:29:42.004Z,1.30
2023-04-06T20:32:10.452Z,1.03
2023-04-06T20:34:38.734Z,1.13
2023-04-06T20:37:07.009Z,1.10
2023-04-06T20:39:36.126Z,1.30
2023-04-06T20:42:04.432Z,1.00
2023-04-06T20:44:34.065Z,0.87
2023-04-06T20:47:02.371Z,0.70
2023-04-06T20:49:30.727Z,0.90
2023-04-06T20:51:58.990Z,0.80
2023-04-06T20:54:29.455Z,0.97
2023-04-06T20:56:59.666Z,0.80
2023-04-06T20:59:27.933Z,0.83
2023-04-06T21:01:57.713Z,0.70
2023-04-06T21:04:26.272Z,1.00
2023-04-06T21:06:54.595Z,0.70
2023-04-06T21:09:24.811Z,0.97
2023-04-06T21:11:53.090Z,0.63
2023-04-06T21:14:21.413Z,0.77
2023-04-06T21:16:49.646Z,1.00
2023-04-06T21:19:19.261Z,0.90
2023-04-06T21:21:47.516Z,0.73
2023-04-06T21:24:16.082Z,1.20
2023-04-06T21:26:44.419Z,0.63
2023-04-06T21:29:12.643Z,1.00
2023-04-06T21:31:42.435Z,1.00
2023-04-06T21:34:11.204Z,0.77
2023-04-06T21:36:40.890Z,0.90
2023-04-06T21:39:09.240Z,1.07
2023-04-06T21:41:37.508Z,0.80
2023-04-06T21:44:05.770Z,0.90
2023-04-06T21:46:34.131Z,1.00
2023-04-06T21:49:02.438Z,0.80
2023-04-06T21:51:31.799Z,1.00
2023-04-06T21:54:01.914Z,0.70
2023-04-06T21:56:30.344Z,0.87
2023-04-06T21:58:58.597Z,1.30
2023-04-06T22:01:28.143Z,1.20
2023-04-06T22:03:56.619Z,1.00
2023-04-06T22:06:25.690Z,0.80
2023-04-06T22:08:54.051Z,0.63
2023-04-06T22:11:23.761Z,1.00
2023-04-06T22:13:52.068Z,0.67
2023-04-06T22:16:20.352Z,0.90
2023-04-06T22:18:48.636Z,0.60
2023-04-06T22:21:16.886Z,0.60
2023-04-06T22:23:45.197Z,0.67
2023-04-06T22:26:13.521Z,0.80
2023-04-06T22:28:43.186Z,0.77
2023-04-06T22:31:11.452Z,0.87
2023-04-06T22:33:39.664Z,0.90
2023-04-06T22:36:08.214Z,0.80
2023-04-06T22:38:36.567Z,0.77
2023-04-06T22:41:06.039Z,0.60
2023-04-06T22:43:35.508Z,0.67
2023-04-06T22:46:05.489Z,0.93
2023-04-06T22:48:33.737Z,0.80
2023-04-06T22:51:02.026Z,1.30
2023-04-06T22:53:30.339Z,0.70
2023-04-06T22:55:58.596Z,1.17
2023-04-06T22:58:26.821Z,0.73
2023-04-06T23:00:55.134Z,0.67
2023-04-06T23:03:24.903Z,0.70
2023-04-06T23:05:53.306Z,0.90
2023-04-06T23:08:21.614Z,0.50
2023-04-06T23:10:49.874Z,0.90
2023-04-06T23:13:18.267Z,0.60
2023-04-06T23:15:46.553Z,0.90
2023-04-06T23:18:14.786Z,0.63
2023-04-06T23:20:44.397Z,0.83
2023-04-06T23:23:12.738Z,0.90
2023-04-06T23:25:41.003Z,0.53
2023-04-06T23:28:09.380Z,0.43
2023-04-06T23:30:37.692Z,0.93
2023-04-06T23:33:06.151Z,0.73
2023-04-06T23:35:34.405Z,0.60
2023-04-06T23:38:04.139Z,0.70
2023-04-06T23:40:32.403Z,0.80
2023-04-06T23:43:00.893Z,1.07
2023-04-06T23:45:29.127Z,0.70
2023-04-06T23:47:57.444Z,0.57
2023-04-06T23:50:25.825Z,0.80
2023-04-06T23:52:54.096Z,0.60
2023-04-06T23:55:23.715Z,0.50
2023-04-06T23:57:51.969Z,0.80
